createdAt,value
2019-02-20T00:01:33.995Z,16.67
2019-02-20T00:04:04.422Z,14.90
2019-02-20T00:06:34.845Z,15.20
2019-02-20T00:09:06.452Z,14.10
2019-02-20T00:11:36.981Z,16.17
2019-02-20T00:14:07.461Z,16.23
2019-02-20T00:16:37.873Z,16.27
2019-02-20T00:19:09.632Z,16.00
2019-02-20T00:21:40.061Z,15.17
2019-02-20T00:24:12.652Z,16.13
2019-02-20T00:26:43.078Z,16.13
2019-02-20T00:29:13.489Z,15.87
2019-02-20T00:31:43.945Z,16.67
2019-02-20T00:34:14.450Z,14.93
2019-02-20T00:36:44.873Z,17.00
2019-02-20T00:39:15.313Z,16.47
2019-02-20T00:41:45.730Z,17.73
2019-02-20T00:44:26.713Z,18.50
2019-02-20T00:47:21.503Z,18.37
2019-02-20T00:49:52.554Z,18.57
2019-02-20T00:52:32.812Z,20.13
2019-02-20T00:55:03.377Z,21.67
2019-02-20T00:57:33.868Z,19.67
2019-02-20T01:00:04.606Z,19.00
2019-02-20T01:02:35.337Z,19.83
2019-02-20T01:05:05.914Z,18.10
2019-02-20T01:07:36.412Z,18.33
2019-02-20T01:10:07.175Z,22.17
2019-02-20T01:12:37.649Z,19.63
2019-02-20T01:15:08.438Z,19.23
2019-02-20T01:17:38.920Z,22.03
2019-02-20T01:20:09.864Z,22.17
2019-02-20T01:22:40.289Z,20.77
2019-02-20T01:25:10.922Z,18.57
2019-02-20T01:27:41.340Z,20.07
2019-02-20T01:30:11.834Z,21.90
2019-02-20T01:32:42.512Z,22.77
2019-02-20T01:35:13.082Z,23.67
2019-02-20T01:37:43.560Z,22.33
2019-02-20T01:40:13.990Z,23.00
2019-02-20T01:42:44.423Z,22.53
2019-02-20T01:45:15.885Z,22.57
2019-02-20T01:47:46.300Z,21.90
2019-02-20T01:50:16.717Z,21.50
2019-02-20T01:52:47.208Z,22.17
2019-02-20T01:55:17.707Z,23.33
2019-02-20T01:57:48.203Z,21.30
2019-02-20T02:00:18.640Z,20.37
2019-02-20T02:02:49.050Z,19.07
2019-02-20T02:05:19.550Z,19.80
2019-02-20T02:07:50.014Z,20.50
2019-02-20T02:10:20.442Z,20.27
2019-02-20T02:12:50.865Z,19.77
2019-02-20T02:15:21.306Z,19.10
2019-02-20T02:17:51.722Z,19.77
2019-02-20T02:20:22.147Z,20.63
2019-02-20T02:22:52.575Z,20.03
2019-02-20T02:25:23.001Z,19.53
2019-02-20T02:27:53.429Z,18.77
2019-02-20T02:30:24.880Z,18.63
2019-02-20T02:32:57.261Z,19.50
2019-02-20T02:35:27.373Z,19.37
2019-02-20T02:37:57.856Z,18.57
2019-02-20T02:40:28.238Z,19.07
2019-02-20T02:42:59.693Z,17.17
2019-02-20T02:45:30.107Z,17.80
2019-02-20T02:48:00.545Z,18.27
2019-02-20T02:50:30.961Z,16.40
2019-02-20T02:53:01.570Z,17.63
2019-02-20T02:55:32.074Z,16.47
2019-02-20T02:58:02.557Z,17.20
2019-02-20T03:00:32.988Z,16.63
2019-02-20T03:03:03.406Z,17.13
2019-02-20T03:05:33.826Z,16.47
2019-02-20T03:08:04.265Z,15.43
2019-02-20T03:10:34.682Z,13.93
2019-02-20T03:13:05.314Z,17.07
2019-02-20T03:15:35.736Z,16.57
2019-02-20T03:18:06.244Z,15.07
2019-02-20T03:20:36.697Z,15.90
2019-02-20T03:23:07.135Z,16.77
2019-02-20T03:25:37.564Z,15.80
2019-02-20T03:28:08.034Z,15.07
2019-02-20T03:30:38.543Z,14.30
2019-02-20T03:33:08.934Z,16.07
2019-02-20T03:35:39.362Z,14.77
2019-02-20T03:38:09.792Z,16.00
2019-02-20T03:40:40.214Z,15.07
2019-02-20T03:43:10.696Z,16.63
2019-02-20T03:45:41.184Z,14.30
2019-02-20T03:48:11.608Z,15.83
2019-02-20T03:50:42.049Z,13.80
2019-02-20T03:53:12.522Z,14.37
2019-02-20T03:55:43.709Z,13.57
2019-02-20T03:58:14.398Z,12.33
2019-02-20T04:00:44.882Z,12.37
2019-02-20T04:03:15.390Z,11.80
2019-02-20T04:05:45.830Z,12.90
2019-02-20T04:08:16.240Z,12.80
2019-02-20T04:10:46.676Z,13.37
2019-02-20T04:13:17.097Z,13.30
2019-02-20T04:15:47.555Z,14.27
2019-02-20T04:18:18.055Z,13.80
2019-02-20T04:20:48.482Z,17.23
2019-02-20T04:23:18.909Z,12.90
2019-02-20T04:25:49.349Z,12.87
2019-02-20T04:28:19.978Z,11.83
2019-02-20T04:30:50.613Z,11.53
2019-02-20T04:33:21.243Z,11.30
2019-02-20T04:35:51.718Z,10.37
2019-02-20T04:38:22.199Z,10.97
2019-02-20T04:40:52.625Z,11.07
2019-02-20T04:43:23.038Z,11.63
2019-02-20T04:45:53.529Z,12.37
2019-02-20T04:48:24.100Z,11.63
2019-02-20T04:50:54.537Z,12.10
2019-02-20T04:53:25.125Z,11.60
2019-02-20T04:55:55.702Z,10.67
2019-02-20T04:58:26.231Z,9.93
2019-02-20T05:00:56.642Z,10.00
2019-02-20T05:03:27.081Z,9.93
2019-02-20T05:05:57.519Z,10.20
2019-02-20T05:08:27.925Z,9.93
2019-02-20T05:10:58.351Z,9.83
2019-02-20T05:13:28.778Z,10.57
2019-02-20T05:15:59.217Z,10.83
2019-02-20T05:18:29.681Z,11.43
2019-02-20T05:21:00.173Z,10.93
2019-02-20T05:23:30.592Z,9.57
2019-02-20T05:26:01.016Z,10.40
2019-02-20T05:28:31.455Z,9.73
2019-02-20T05:31:01.882Z,9.00
2019-02-20T05:33:33.551Z,9.83
2019-02-20T05:36:03.958Z,9.63
2019-02-20T05:38:34.380Z,12.37
2019-02-20T05:41:25.303Z,11.23
2019-02-20T05:43:55.794Z,10.80
2019-02-20T05:46:26.241Z,11.30
2019-02-20T05:48:56.900Z,9.90
2019-02-20T05:51:27.306Z,11.83
2019-02-20T05:53:57.944Z,9.97
2019-02-20T05:56:28.682Z,10.50
2019-02-20T05:58:59.204Z,10.70
2019-02-20T06:01:29.630Z,10.57
2019-02-20T06:04:00.063Z,10.73
2019-02-20T06:06:30.555Z,11.63
2019-02-20T06:09:01.017Z,11.17
2019-02-20T06:11:31.437Z,11.80
2019-02-20T06:14:02.051Z,11.67
2019-02-20T06:16:32.493Z,11.23
2019-02-20T06:19:02.924Z,11.27
2019-02-20T06:21:33.402Z,12.20
2019-02-20T06:24:03.877Z,11.17
2019-02-20T06:26:34.305Z,11.23
2019-02-20T06:29:04.745Z,10.90
2019-02-20T06:31:35.158Z,13.17
2019-02-20T06:34:05.585Z,12.00
2019-02-20T06:36:36.014Z,13.67
2019-02-20T06:39:06.726Z,14.20
2019-02-20T06:41:39.452Z,14.33
2019-02-20T06:44:13.824Z,12.80
2019-02-20T06:46:44.274Z,14.70
2019-02-20T06:49:14.709Z,14.37
2019-02-20T06:51:45.373Z,14.70
2019-02-20T06:54:15.873Z,13.77
2019-02-20T06:56:46.998Z,14.97
2019-02-20T06:59:17.711Z,14.97
2019-02-20T07:01:48.166Z,14.33
2019-02-20T07:04:18.600Z,14.63
2019-02-20T07:07:17.057Z,16.90
2019-02-20T07:10:43.110Z,16.47
2019-02-20T07:13:42.181Z,13.90
2019-02-20T07:16:59.649Z,14.93
2019-02-20T07:19:51.237Z,13.73
2019-02-20T07:23:02.343Z,13.47
2019-02-20T07:26:06.674Z,18.77
2019-02-20T07:29:13.822Z,17.00
2019-02-20T07:31:44.500Z,19.43
2019-02-20T07:34:14.909Z,21.53
2019-02-20T07:36:45.374Z,26.00
2019-02-20T07:39:15.764Z,25.40
2019-02-20T07:41:46.204Z,25.60
2019-02-20T07:44:16.811Z,25.50
2019-02-20T07:46:47.267Z,23.17
2019-02-20T07:49:17.677Z,19.40
2019-02-20T07:51:48.101Z,18.70
2019-02-20T07:54:18.848Z,12.40
2019-02-20T07:56:50.269Z,10.23
2019-02-20T07:59:21.038Z,8.80
2019-02-20T08:01:51.449Z,8.90
2019-02-20T08:04:21.880Z,7.73
2019-02-20T08:06:52.316Z,6.40
2019-02-20T08:09:22.730Z,6.47
2019-02-20T08:11:54.589Z,5.57
2019-02-20T08:14:25.194Z,5.13
2019-02-20T08:16:55.598Z,4.80
2019-02-20T08:19:26.078Z,5.27
2019-02-20T08:21:56.509Z,5.20
2019-02-20T08:24:26.940Z,4.50
2019-02-20T08:26:57.386Z,4.57
2019-02-20T08:29:27.925Z,4.40
2019-02-20T08:31:58.343Z,4.03
2019-02-20T08:34:28.753Z,4.87
2019-02-20T08:36:59.169Z,4.70
2019-02-20T08:39:29.618Z,4.67
2019-02-20T08:42:00.242Z,4.80
2019-02-20T08:44:30.871Z,4.90
2019-02-20T08:47:01.296Z,4.70
2019-02-20T08:49:31.716Z,4.37
2019-02-20T08:52:02.138Z,4.23
2019-02-20T08:54:32.585Z,4.93
2019-02-20T08:57:03.230Z,6.57
2019-02-20T08:59:33.916Z,7.13
2019-02-20T09:02:04.369Z,5.83
2019-02-20T09:04:43.198Z,5.40
2019-02-20T09:07:13.936Z,4.90
2019-02-20T09:09:44.520Z,4.17
2019-02-20T09:12:14.977Z,4.33
2019-02-20T09:14:45.406Z,4.33
2019-02-20T09:17:15.830Z,4.70
2019-02-20T09:19:46.273Z,4.57
2019-02-20T09:22:16.686Z,4.07
2019-02-20T09:24:47.114Z,3.90
2019-02-20T09:27:17.537Z,3.80
2019-02-20T09:29:47.997Z,3.60
2019-02-20T09:32:18.512Z,3.50
2019-02-20T09:34:48.934Z,3.27
2019-02-20T09:37:19.350Z,3.13
2019-02-20T09:39:49.801Z,3.23
2019-02-20T09:42:21.708Z,2.77
2019-02-20T09:44:52.371Z,3.00
2019-02-20T09:47:22.808Z,3.27
2019-02-20T09:49:53.245Z,3.97
2019-02-20T09:52:24.891Z,4.00
2019-02-20T09:54:56.547Z,3.20
2019-02-20T09:57:27.179Z,3.07
2019-02-20T09:59:57.758Z,3.60
2019-02-20T10:02:28.238Z,3.30
2019-02-20T10:04:58.765Z,3.37
2019-02-20T10:07:29.181Z,3.60
2019-02-20T10:09:59.622Z,3.50
2019-02-20T10:12:30.033Z,3.87
2019-02-20T10:15:00.588Z,3.27
2019-02-20T10:17:30.993Z,3.40
2019-02-20T10:20:01.429Z,3.00
2019-02-20T10:22:31.851Z,3.40
2019-02-20T10:25:02.323Z,3.50
2019-02-20T10:27:33.929Z,3.60
2019-02-20T10:30:04.879Z,3.60
2019-02-20T10:32:35.328Z,3.73
2019-02-20T10:35:06.083Z,3.60
2019-02-20T10:37:36.571Z,3.50
2019-02-20T10:40:07.235Z,3.33
2019-02-20T10:42:40.813Z,3.53
2019-02-20T10:45:11.235Z,3.53
2019-02-20T10:47:41.645Z,3.87
2019-02-20T10:50:12.178Z,3.73
2019-02-20T10:52:42.616Z,4.00
2019-02-20T10:55:13.194Z,3.83
2019-02-20T10:57:44.081Z,4.47
2019-02-20T11:00:23.991Z,3.80
2019-02-20T11:02:49.906Z,3.83
2019-02-20T11:05:20.369Z,3.67
2019-02-20T11:07:50.796Z,3.40
2019-02-20T11:10:21.224Z,3.73
2019-02-20T11:12:51.661Z,4.03
2019-02-20T11:15:22.085Z,3.80
2019-02-20T11:17:52.506Z,3.70
2019-02-20T11:20:22.933Z,4.00
2019-02-20T11:22:53.371Z,3.77
2019-02-20T11:25:23.787Z,3.50
2019-02-20T11:27:54.223Z,3.40
2019-02-20T11:30:24.637Z,3.40
2019-02-20T11:32:55.068Z,4.13
2019-02-20T11:35:25.521Z,3.97
2019-02-20T11:37:55.922Z,4.40
2019-02-20T11:40:26.350Z,3.97
2019-02-20T11:42:56.788Z,4.33
2019-02-20T11:45:27.201Z,3.93
2019-02-20T11:47:57.630Z,3.80
2019-02-20T11:50:28.053Z,3.87
2019-02-20T11:52:58.494Z,4.40
2019-02-20T11:55:28.911Z,3.83
2019-02-20T11:58:00.991Z,4.08
2019-02-20T12:00:31.846Z,4.10
2019-02-20T12:03:02.342Z,4.22
2019-02-20T12:05:33.085Z,3.90
2019-02-20T12:08:03.519Z,4.10
2019-02-20T12:10:34.007Z,3.97
2019-02-20T12:13:04.472Z,3.90
2019-02-20T12:15:35.052Z,4.17
2019-02-20T12:18:05.621Z,3.53
2019-02-20T12:20:36.086Z,3.45
2019-02-20T12:23:06.588Z,3.83
2019-02-20T12:25:37.002Z,3.60
2019-02-20T12:28:07.432Z,3.90
2019-02-20T12:30:38.146Z,3.90
2019-02-20T12:33:08.807Z,3.42
2019-02-20T12:35:39.245Z,4.10
2019-02-20T12:38:09.706Z,4.20
2019-02-20T12:40:40.193Z,3.98
2019-02-20T12:43:10.678Z,4.03
2019-02-20T12:45:41.149Z,4.53
2019-02-20T12:48:11.538Z,4.70
2019-02-20T12:50:42.039Z,4.67
2019-02-20T12:53:12.590Z,5.53
2019-02-20T12:55:43.058Z,5.37
2019-02-20T12:58:13.550Z,5.70
2019-02-20T13:00:44.163Z,6.10
2019-02-20T13:03:14.570Z,6.33
2019-02-20T13:05:45.062Z,5.67
2019-02-20T13:08:15.580Z,5.57
2019-02-20T13:10:46.019Z,5.13
2019-02-20T13:13:16.560Z,5.27
2019-02-20T13:15:46.977Z,5.47
2019-02-20T13:18:17.487Z,5.08
2019-02-20T13:20:48.149Z,5.17
2019-02-20T13:23:20.080Z,4.60
2019-02-20T13:25:50.836Z,4.62
2019-02-20T13:28:21.263Z,4.00
2019-02-20T13:30:51.692Z,4.30
2019-02-20T13:33:22.115Z,4.00
2019-02-20T13:35:52.540Z,4.10
2019-02-20T13:38:22.970Z,4.40
2019-02-20T13:40:53.550Z,4.25
2019-02-20T13:43:24.041Z,4.40
2019-02-20T13:45:54.470Z,4.03
2019-02-20T13:48:24.882Z,4.70
2019-02-20T13:50:55.306Z,4.83
2019-02-20T13:53:25.734Z,5.10
2019-02-20T13:55:56.164Z,6.07
2019-02-20T13:58:27.118Z,5.57
2019-02-20T14:00:57.685Z,5.43
2019-02-20T14:03:29.762Z,5.47
2019-02-20T14:06:00.343Z,5.30
2019-02-20T14:08:30.754Z,5.50
2019-02-20T14:11:01.249Z,5.60
2019-02-20T14:13:31.926Z,5.55
2019-02-20T14:16:02.355Z,5.22
2019-02-20T14:18:32.768Z,5.30
2019-02-20T14:21:03.209Z,4.85
2019-02-20T14:23:33.621Z,4.65
2019-02-20T14:26:04.049Z,4.65
2019-02-20T14:28:34.481Z,4.90
2019-02-20T14:31:04.906Z,4.40
2019-02-20T14:33:35.333Z,5.22
2019-02-20T14:36:05.774Z,4.90
2019-02-20T14:38:36.198Z,5.45
2019-02-20T14:41:06.935Z,5.90
2019-02-20T14:43:37.666Z,5.03
2019-02-20T14:46:08.081Z,4.53
2019-02-20T14:48:38.523Z,4.78
2019-02-20T14:51:08.932Z,5.17
2019-02-20T14:53:39.362Z,4.67
2019-02-20T14:56:10.107Z,4.90
2019-02-20T14:58:40.626Z,5.60
2019-02-20T15:01:13.078Z,5.25
2019-02-20T15:03:43.322Z,5.00
2019-02-20T15:06:13.852Z,5.67
2019-02-20T15:08:44.732Z,5.53
2019-02-20T15:11:15.122Z,5.08
2019-02-20T15:13:46.194Z,5.17
2019-02-20T15:16:16.585Z,5.58
2019-02-20T15:18:47.020Z,5.50
2019-02-20T15:21:17.458Z,6.37
2019-02-20T15:23:48.187Z,5.63
2019-02-20T15:26:18.613Z,7.03
2019-02-20T15:28:49.042Z,7.13
2019-02-20T15:31:21.305Z,6.77
2019-02-20T15:33:51.639Z,5.70
2019-02-20T15:36:22.164Z,5.67
2019-02-20T15:38:52.591Z,5.72
2019-02-20T15:41:23.027Z,5.87
2019-02-20T15:43:53.444Z,6.00
2019-02-20T15:46:25.167Z,5.40
2019-02-20T15:48:55.628Z,4.93
2019-02-20T15:51:26.363Z,5.10
2019-02-20T15:53:58.531Z,4.43
2019-02-20T15:56:28.962Z,5.03
2019-02-20T15:59:01.189Z,5.50
2019-02-20T16:01:32.007Z,5.70
2019-02-20T16:04:02.490Z,5.73
2019-02-20T16:06:32.918Z,5.23
2019-02-20T16:09:04.043Z,5.30
2019-02-20T16:11:34.493Z,5.83
2019-02-20T16:14:06.048Z,5.07
2019-02-20T16:16:36.777Z,4.30
2019-02-20T16:19:08.920Z,4.83
2019-02-20T16:21:39.371Z,4.43
2019-02-20T16:24:11.028Z,4.40
2019-02-20T16:26:41.456Z,4.80
2019-02-20T16:29:13.692Z,4.70
2019-02-20T16:31:44.459Z,4.40
2019-02-20T16:34:16.423Z,4.90
2019-02-20T16:36:46.847Z,5.07
2019-02-20T16:39:17.275Z,4.83
2019-02-20T16:41:47.703Z,4.53
2019-02-20T16:44:18.119Z,4.93
2019-02-20T16:46:48.863Z,4.90
2019-02-20T16:49:19.361Z,5.37
2019-02-20T16:51:49.819Z,5.00
2019-02-20T16:54:20.245Z,5.77
2019-02-20T16:57:10.643Z,6.07
2019-02-20T16:59:41.187Z,6.00
2019-02-20T17:02:11.959Z,5.73
2019-02-20T17:04:43.636Z,5.23
2019-02-20T17:07:14.098Z,5.83
2019-02-20T17:09:44.521Z,6.60
2019-02-20T17:12:14.934Z,5.80
2019-02-20T17:14:45.373Z,5.77
2019-02-20T17:17:16.055Z,6.27
2019-02-20T17:19:46.533Z,6.80
2019-02-20T17:22:29.866Z,7.63
2019-02-20T17:25:00.307Z,7.50
2019-02-20T17:27:30.726Z,7.70
2019-02-20T17:30:02.590Z,7.73
2019-02-20T17:32:34.335Z,8.50
2019-02-20T17:35:05.102Z,7.50
2019-02-20T17:37:35.609Z,7.83
2019-02-20T17:40:07.839Z,7.50
2019-02-20T17:42:38.372Z,8.73
2019-02-20T17:45:10.973Z,9.23
2019-02-20T17:47:41.739Z,8.83
2019-02-20T17:50:14.105Z,8.90
2019-02-20T17:52:45.533Z,8.57
2019-02-20T17:55:16.068Z,8.57
2019-02-20T17:57:46.497Z,7.13
2019-02-20T18:00:18.843Z,8.60
2019-02-20T18:02:49.608Z,7.40
2019-02-20T18:05:21.095Z,7.27
2019-02-20T18:07:52.082Z,7.13
2019-02-20T18:10:22.625Z,7.70
2019-02-20T18:12:53.049Z,7.10
2019-02-20T18:15:23.476Z,7.17
2019-02-20T18:17:54.063Z,7.20
2019-02-20T18:20:25.165Z,6.83
2019-02-20T18:22:55.674Z,7.30
2019-02-20T18:25:26.103Z,8.27
2019-02-20T18:27:56.531Z,7.70
2019-02-20T18:30:26.955Z,7.23
2019-02-20T18:32:57.383Z,7.00
2019-02-20T18:35:27.831Z,6.63
2019-02-20T18:37:58.237Z,6.83
2019-02-20T18:40:28.667Z,6.30
2019-02-20T18:42:59.090Z,6.47
2019-02-20T18:45:29.563Z,6.30
2019-02-20T18:48:00.049Z,6.03
2019-02-20T18:50:30.532Z,6.57
2019-02-20T18:53:01.009Z,6.73
2019-02-20T18:55:31.449Z,6.33
2019-02-20T18:58:01.868Z,6.43
2019-02-20T19:00:32.610Z,7.10
2019-02-20T19:03:03.305Z,7.40
2019-02-20T19:05:34.043Z,7.53
2019-02-20T19:08:33.757Z,6.90
2019-02-20T19:11:07.727Z,7.30
2019-02-20T19:14:14.629Z,7.93
2019-02-20T19:17:25.221Z,6.93
2019-02-20T19:20:21.371Z,8.83
2019-02-20T19:23:19.201Z,8.73
2019-02-20T19:26:25.071Z,8.23
2019-02-20T19:29:19.039Z,8.60
2019-02-20T19:32:18.480Z,8.50
2019-02-20T19:35:17.469Z,9.67
2019-02-20T19:38:16.747Z,9.47
2019-02-20T19:41:33.824Z,9.60
2019-02-20T19:44:50.736Z,10.73
2019-02-20T19:48:22.701Z,11.27
2019-02-20T19:51:27.629Z,11.43
2019-02-20T19:54:28.455Z,13.23
2019-02-20T19:57:17.647Z,12.60
2019-02-20T20:00:27.189Z,12.30
2019-02-20T20:03:37.343Z,13.57
2019-02-20T20:07:06.962Z,14.23
2019-02-20T20:09:59.797Z,14.67
2019-02-20T20:13:35.083Z,15.00
2019-02-20T20:16:43.491Z,15.53
2019-02-20T20:19:47.610Z,15.13
2019-02-20T20:22:55.380Z,14.40
2019-02-20T20:25:59.881Z,14.87
2019-02-20T20:29:20.004Z,14.20
2019-02-20T20:32:53.745Z,14.87
2019-02-20T20:36:13.598Z,15.87
2019-02-20T20:39:07.576Z,17.07
2019-02-20T20:42:27.873Z,14.80
2019-02-20T20:45:40.979Z,15.43
2019-02-20T20:48:35.100Z,16.83
2019-02-20T20:51:43.505Z,14.60
2019-02-20T20:54:32.843Z,17.47
2019-02-20T20:57:27.952Z,19.17
2019-02-20T21:00:48.683Z,19.03
2019-02-20T21:03:21.003Z,17.47
2019-02-20T21:06:23.436Z,17.30
2019-02-20T21:09:16.184Z,17.90
2019-02-20T21:12:28.492Z,22.43
2019-02-20T21:15:35.204Z,20.17
2019-02-20T21:18:36.739Z,19.87
2019-02-20T21:21:36.439Z,20.23
2019-02-20T21:24:37.280Z,19.37
2019-02-20T21:27:51.395Z,18.80
2019-02-20T21:30:42.995Z,18.40
2019-02-20T21:34:09.101Z,18.43
2019-02-20T21:37:18.505Z,17.00
2019-02-20T21:39:54.397Z,16.03
2019-02-20T21:42:52.701Z,14.97
2019-02-20T21:46:04.052Z,15.53
2019-02-20T21:48:58.027Z,17.03
2019-02-20T21:52:16.376Z,15.00
2019-02-20T21:54:55.888Z,17.17
2019-02-20T21:57:48.667Z,16.33
2019-02-20T22:00:47.619Z,17.07
2019-02-20T22:03:58.439Z,16.03
2019-02-20T22:06:56.835Z,16.27
2019-02-20T22:09:57.325Z,16.33
2019-02-20T22:12:51.176Z,14.80
2019-02-20T22:16:08.328Z,17.43
2019-02-20T22:19:26.096Z,13.43
2019-02-20T22:22:20.362Z,14.70
2019-02-20T22:25:29.531Z,14.73
2019-02-20T22:28:49.712Z,16.10
2019-02-20T22:32:13.382Z,15.20
2019-02-20T22:35:27.535Z,14.87
2019-02-20T22:38:32.265Z,15.00
2019-02-20T22:41:58.600Z,15.00
2019-02-20T22:45:11.320Z,14.30
2019-02-20T22:48:07.857Z,14.20
2019-02-20T22:50:54.123Z,14.03
2019-02-20T22:54:10.295Z,14.23
2019-02-20T22:57:17.452Z,12.27
2019-02-20T23:00:34.359Z,12.60
2019-02-20T23:03:07.451Z,15.27
2019-02-20T23:06:22.013Z,12.60
2019-02-20T23:09:14.419Z,12.20
2019-02-20T23:12:05.428Z,12.57
2019-02-20T23:14:57.708Z,12.03
2019-02-20T23:17:28.855Z,13.40
2019-02-20T23:19:59.549Z,13.23
2019-02-20T23:22:30.191Z,12.17
2019-02-20T23:25:00.701Z,11.80
2019-02-20T23:27:31.168Z,12.23
2019-02-20T23:30:12.236Z,11.33
2019-02-20T23:32:34.684Z,11.57
2019-02-20T23:35:06.035Z,10.70
2019-02-20T23:37:36.665Z,10.90
2019-02-20T23:40:08.016Z,10.70
2019-02-20T23:42:38.445Z,10.47
2019-02-20T23:45:08.868Z,10.07
2019-02-20T23:47:39.299Z,10.57
2019-02-20T23:50:10.003Z,11.73
2019-02-20T23:52:40.457Z,12.07
2019-02-20T23:55:10.986Z,11.90
2019-02-20T23:57:41.630Z,10.67
